Edwin H. Gott — WDG7082 — position and weather

sailwx.info

Track history (hours):
 
Tides and Currents Weather Stations Pressure Air Temp Water Temp Dewpoint Dewpoint Depression Visibility Wind Speed Wind Dir Waves Ship Positions

Edwin H. Gott

Owner: Great Lakes Fleet, Inc., Homewood, IL. More information available from US FCC via Universal Licensing System and Coast Guard Vessel Documentation Center.

Last reported at 2018-Jun-20 05:01 UTC. Time now 2018-Jun-20 05:08 UTC.
Position N 45°49' W 084°47'.

Length 306 m; draft 7.4 m.

Type: Cargo ship. MMSI: 366971370.

Date/timePositionNaut miles runAvg speedWind from/ knotsBaromVisibWave heightAir tempDewpointWater temp
2018-Jun-20 05:01N 45°49' W 084°47'612.9
2018-Jun-20 04:30N 45°50' W 084°38'611.1
2018-Jun-20 04:00N 45°52' W 084°30'713.6
2018-Jun-20 03:30N 45°53' W 084°21'713.6
2018-Jun-20 02:58N 45°53' W 084°10'813.7
2018-Jun-20 02:25N 45°55' W 083°60'320 9.9
2018-Jun-18 18:12N 47°01' W 091°35'213.2
2018-Jun-18 18:00N 47°00' W 091°38'2 1.3
2018-Jun-18 16:48N 47°01' W 091°40'0 0.0
2018-Jun-18 16:18N 47°01' W 091°40'0 0.0
2018-Jun-18 15:51N 47°01' W 091°40'0 0.0
2018-Jun-18 14:09N 47°01' W 091°40'0 0.0
2018-Jun-18 14:00N 47°01' W 091°40'0 0.0
2018-Jun-18 10:06N 47°01' W 091°40'0 0.0
2018-Jun-18 09:51N 47°01' W 091°40'0 0.0
2018-Jun-18 09:24N 47°01' W 091°40'0 0.0
2018-Jun-18 08:24N 47°01' W 091°40'0 0.0
2018-Jun-18 07:54N 47°01' W 091°40'0 0.0
2018-Jun-18 07:12N 47°01' W 091°40'0 0.0
2018-Jun-18 06:54N 47°01' W 091°40'0 0.0
2018-Jun-18 05:24N 47°01' W 091°40'0 0.0
2018-Jun-18 04:54N 47°01' W 091°40'0 0.0
2018-Jun-18 03:27N 47°01' W 091°40'0 0.0
2018-Jun-18 02:57N 47°01' W 091°40'0 0.0
2018-Jun-18 02:27N 47°01' W 091°40'0 0.0
2018-Jun-18 02:00N 47°01' W 091°40'0 0.3
2018-Jun-18 01:28N 47°01' W 091°40'0 0.7
2018-Jun-18 01:00N 47°01' W 091°40'1 1.5
2018-Jun-18 00:30N 46°60' W 091°40'2 3.5
2018-Jun-18 00:00N 47°00' W 091°38'3 6.0
2018-Jun-17 23:30N 46°59' W 091°42'1 2.4
2018-Jun-17 23:00N 46°59' W 091°40'1 1.2
2018-Jun-17 22:30N 46°60' W 091°40'2 4.0
2018-Jun-17 22:00N 46°58' W 091°41'2 4.3
2018-Jun-17 21:30N 47°00' W 091°40'1 1.3
2018-Jun-17 21:00N 46°60' W 091°41'0 0.7
2018-Jun-17 20:30N 46°60' W 091°40'2 3.8
2018-Jun-17 20:00N 46°58' W 091°42'3 5.1
2018-Jun-17 19:30N 46°60' W 091°39'1 2.4
2018-Jun-17 18:59N 46°60' W 091°41'0 0.6
2018-Jun-17 18:17N 46°59' W 091°41'0 1.3
2018-Jun-17 17:59N 46°59' W 091°41'1 1.6
2018-Jun-17 17:30N 46°60' W 091°40'1 2.3
2018-Jun-17 17:00N 46°59' W 091°41'2 3.6
2018-Jun-17 16:30N 46°57' W 091°42'3 5.6
2018-Jun-17 16:00N 46°59' W 091°40'1 2.3
2018-Jun-17 15:29N 47°00' W 091°41'1 1.8
2018-Jun-17 15:00N 46°59' W 091°40'2 3.1
2018-Jun-17 14:30N 46°60' W 091°38'2 3.5
2018-Jun-17 14:00N 46°60' W 091°41'1 2.3
2018-Jun-17 13:30N 46°59' W 091°41'1 2.6
2018-Jun-17 13:00N 46°58' W 091°40'0 0.9
2018-Jun-17 12:28N 46°58' W 091°41'2 5.3
2018-Jun-17 12:00N 46°56' W 091°44'32010.1
2018-Jun-16 04:22N 45°52' W 084°09'614.9
2018-Jun-16 03:58N 45°52' W 084°17'715.0
2018-Jun-16 03:30N 45°52' W 084°27'714.0
2018-Jun-16 03:00N 45°50' W 084°37'713.5
2018-Jun-16 02:30N 45°49' W 084°47'714.5
2018-Jun-16 02:00N 45°49' W 084°57'714.2
2018-Jun-16 01:30N 45°49' W 085°07'510.1
2018-Jun-16 01:00N 45°45' W 085°10'714.5
2018-Jun-16 00:29N 45°39' W 085°16'714.6
2018-Jun-16 00:00N 45°33' W 085°22'714.6
2018-Jun-15 23:30N 45°27' W 085°29'714.6
2018-Jun-15 23:01N 45°21' W 085°35'714.5
2018-Jun-15 22:30N 45°16' W 085°41'714.7
2018-Jun-15 22:01N 45°10' W 085°47'714.6
2018-Jun-15 21:31N 45°04' W 085°53'814.4
2018-Jun-15 20:59N 44°59' W 086°01'714.8
2018-Jun-15 20:30N 44°56' W 086°10'26 0.6
2018-Jun-13 22:17N 45°21' W 086°14'413.5
2018-Jun-13 21:58N 45°25' W 086°13'713.5
2018-Jun-13 21:25N 45°33' W 086°10'613.3
2018-Jun-13 20:59N 45°38' W 086°07'612.2
2018-Jun-13 20:30N 45°43' W 086°02'1113.4
2018-Jun-13 19:43N 45°48' W 085°49'313.6
2018-Jun-13 19:30N 45°49' W 085°46'713.2
2018-Jun-13 19:00N 45°53' W 085°37'612.3
2018-Jun-13 18:30N 45°54' W 085°29'912.7
2018-Jun-13 17:48N 45°53' W 085°16'412.5
2018-Jun-13 17:30N 45°52' W 085°11'612.7
2018-Jun-13 17:00N 45°51' W 085°02'612.4
2018-Jun-13 16:30N 45°50' W 084°53'611.9
2018-Jun-13 16:00N 45°49' W 084°44'510.5
2018-Jun-13 15:30N 45°50' W 084°37'510.5
2018-Jun-13 15:00N 45°52' W 084°30'713.2
2018-Jun-13 14:30N 45°53' W 084°20'308 9.3
2018-Jun-12 05:19N 47°01' W 091°36'310.1
2018-Jun-12 05:00N 47°00' W 091°40'1 0.4
2018-Jun-12 03:38N 47°01' W 091°40'0 0.0
2018-Jun-12 00:39N 47°01' W 091°40'0 0.0
2018-Jun-12 00:17N 47°01' W 091°40'0 0.0
2018-Jun-11 23:59N 47°01' W 091°40'0 0.0
2018-Jun-11 21:35N 47°01' W 091°40'0 0.0
2018-Jun-11 18:38N 47°01' W 091°40'0 0.1
2018-Jun-11 18:23N 47°01' W 091°40'0 0.1
2018-Jun-11 17:53N 47°01' W 091°40'0 0.0
2018-Jun-11 17:23N 47°01' W 091°40'0 0.0
2018-Jun-11 16:53N 47°01' W 091°40'0 0.0
2018-Jun-11 16:26N 47°01' W 091°40'0 0.0
2018-Jun-11 16:00N 47°01' W 091°40'0 0.4
2018-Jun-11 15:29N 47°01' W 091°40'1 1.3
2018-Jun-11 15:00N 47°00' W 091°41'1 2.0
2018-Jun-11 14:30N 46°59' W 091°41'1 1.6
2018-Jun-11 13:53N 46°59' W 091°40'1 3.6
2018-Jun-11 13:29N 46°60' W 091°38'2 4.8
2018-Jun-11 13:00N 46°59' W 091°41'3 5.3
2018-Jun-11 12:30N 47°00' W 091°38'30711.1
2018-Jun-10 08:56N 46°23' W 084°13'20 8.2
2018-Jun-10 06:28N 46°04' W 084°01'612.8
2018-Jun-10 06:00N 46°02' W 083°53'612.6
2018-Jun-10 05:31N 45°56' W 083°55'  
Track history (hours):
 
Tides and Currents Weather Stations Pressure Air Temp Water Temp Dewpoint Dewpoint Depression Visibility Wind Speed Wind Dir Waves Ship Positions

Edwin H. Gott

Owner: Great Lakes Fleet, Inc., Homewood, IL. More information available from US FCC via Universal Licensing System and Coast Guard Vessel Documentation Center.

Last reported at 2018-Jun-20 05:01 UTC. Time now 2018-Jun-20 05:08 UTC.
Position N 45°49' W 084°47'.

Length 306 m; draft 7.4 m.

Type: Cargo ship. MMSI: 366971370.

Date/timePositionNaut miles runAvg speedWind from/ knotsBaromVisibWave heightAir tempDewpointWater temp
2018-Jun-20 05:01N 45°49' W 084°47'612.9
2018-Jun-20 04:30N 45°50' W 084°38'611.1
2018-Jun-20 04:00N 45°52' W 084°30'713.6
2018-Jun-20 03:30N 45°53' W 084°21'713.6
2018-Jun-20 02:58N 45°53' W 084°10'813.7
2018-Jun-20 02:25N 45°55' W 083°60'320 9.9
2018-Jun-18 18:12N 47°01' W 091°35'213.2
2018-Jun-18 18:00N 47°00' W 091°38'2 1.3
2018-Jun-18 16:48N 47°01' W 091°40'0 0.0
2018-Jun-18 16:18N 47°01' W 091°40'0 0.0
2018-Jun-18 15:51N 47°01' W 091°40'0 0.0
2018-Jun-18 14:09N 47°01' W 091°40'0 0.0
2018-Jun-18 14:00N 47°01' W 091°40'0 0.0
2018-Jun-18 10:06N 47°01' W 091°40'0 0.0
2018-Jun-18 09:51N 47°01' W 091°40'0 0.0
2018-Jun-18 09:24N 47°01' W 091°40'0 0.0
2018-Jun-18 08:24N 47°01' W 091°40'0 0.0
2018-Jun-18 07:54N 47°01' W 091°40'0 0.0
2018-Jun-18 07:12N 47°01' W 091°40'0 0.0
2018-Jun-18 06:54N 47°01' W 091°40'0 0.0
2018-Jun-18 05:24N 47°01' W 091°40'0 0.0
2018-Jun-18 04:54N 47°01' W 091°40'0 0.0
2018-Jun-18 03:27N 47°01' W 091°40'0 0.0
2018-Jun-18 02:57N 47°01' W 091°40'0 0.0
2018-Jun-18 02:27N 47°01' W 091°40'0 0.0
2018-Jun-18 02:00N 47°01' W 091°40'0 0.3
2018-Jun-18 01:28N 47°01' W 091°40'0 0.7
2018-Jun-18 01:00N 47°01' W 091°40'1 1.5
2018-Jun-18 00:30N 46°60' W 091°40'2 3.5
2018-Jun-18 00:00N 47°00' W 091°38'3 6.0
2018-Jun-17 23:30N 46°59' W 091°42'1 2.4
2018-Jun-17 23:00N 46°59' W 091°40'1 1.2
2018-Jun-17 22:30N 46°60' W 091°40'2 4.0
2018-Jun-17 22:00N 46°58' W 091°41'2 4.3
2018-Jun-17 21:30N 47°00' W 091°40'1 1.3
2018-Jun-17 21:00N 46°60' W 091°41'0 0.7
2018-Jun-17 20:30N 46°60' W 091°40'2 3.8
2018-Jun-17 20:00N 46°58' W 091°42'3 5.1
2018-Jun-17 19:30N 46°60' W 091°39'1 2.4
2018-Jun-17 18:59N 46°60' W 091°41'0 0.6
2018-Jun-17 18:17N 46°59' W 091°41'0 1.3
2018-Jun-17 17:59N 46°59' W 091°41'1 1.6
2018-Jun-17 17:30N 46°60' W 091°40'1 2.3
2018-Jun-17 17:00N 46°59' W 091°41'2 3.6
2018-Jun-17 16:30N 46°57' W 091°42'3 5.6
2018-Jun-17 16:00N 46°59' W 091°40'1 2.3
2018-Jun-17 15:29N 47°00' W 091°41'1 1.8
2018-Jun-17 15:00N 46°59' W 091°40'2 3.1
2018-Jun-17 14:30N 46°60' W 091°38'2 3.5
2018-Jun-17 14:00N 46°60' W 091°41'1 2.3
2018-Jun-17 13:30N 46°59' W 091°41'1 2.6
2018-Jun-17 13:00N 46°58' W 091°40'0 0.9
2018-Jun-17 12:28N 46°58' W 091°41'2 5.3
2018-Jun-17 12:00N 46°56' W 091°44'32010.1
2018-Jun-16 04:22N 45°52' W 084°09'614.9
2018-Jun-16 03:58N 45°52' W 084°17'715.0
2018-Jun-16 03:30N 45°52' W 084°27'714.0
2018-Jun-16 03:00N 45°50' W 084°37'713.5
2018-Jun-16 02:30N 45°49' W 084°47'714.5
2018-Jun-16 02:00N 45°49' W 084°57'714.2
2018-Jun-16 01:30N 45°49' W 085°07'510.1
2018-Jun-16 01:00N 45°45' W 085°10'714.5
2018-Jun-16 00:29N 45°39' W 085°16'714.6
2018-Jun-16 00:00N 45°33' W 085°22'714.6
2018-Jun-15 23:30N 45°27' W 085°29'714.6
2018-Jun-15 23:01N 45°21' W 085°35'714.5
2018-Jun-15 22:30N 45°16' W 085°41'714.7
2018-Jun-15 22:01N 45°10' W 085°47'714.6
2018-Jun-15 21:31N 45°04' W 085°53'814.4
2018-Jun-15 20:59N 44°59' W 086°01'714.8
2018-Jun-15 20:30N 44°56' W 086°10'26 0.6
2018-Jun-13 22:17N 45°21' W 086°14'413.5
2018-Jun-13 21:58N 45°25' W 086°13'713.5
2018-Jun-13 21:25N 45°33' W 086°10'613.3
2018-Jun-13 20:59N 45°38' W 086°07'612.2
2018-Jun-13 20:30N 45°43' W 086°02'1113.4
2018-Jun-13 19:43N 45°48' W 085°49'313.6
2018-Jun-13 19:30N 45°49' W 085°46'713.2
2018-Jun-13 19:00N 45°53' W 085°37'612.3
2018-Jun-13 18:30N 45°54' W 085°29'912.7
2018-Jun-13 17:48N 45°53' W 085°16'412.5
2018-Jun-13 17:30N 45°52' W 085°11'612.7
2018-Jun-13 17:00N 45°51' W 085°02'612.4
2018-Jun-13 16:30N 45°50' W 084°53'611.9
2018-Jun-13 16:00N 45°49' W 084°44'510.5
2018-Jun-13 15:30N 45°50' W 084°37'510.5
2018-Jun-13 15:00N 45°52' W 084°30'713.2
2018-Jun-13 14:30N 45°53' W 084°20'308 9.3
2018-Jun-12 05:19N 47°01' W 091°36'310.1
2018-Jun-12 05:00N 47°00' W 091°40'1 0.4
2018-Jun-12 03:38N 47°01' W 091°40'0 0.0
2018-Jun-12 00:39N 47°01' W 091°40'0 0.0
2018-Jun-12 00:17N 47°01' W 091°40'0 0.0
2018-Jun-11 23:59N 47°01' W 091°40'0 0.0
2018-Jun-11 21:35N 47°01' W 091°40'0 0.0
2018-Jun-11 18:38N 47°01' W 091°40'0 0.1
2018-Jun-11 18:23N 47°01' W 091°40'0 0.1
2018-Jun-11 17:53N 47°01' W 091°40'0 0.0
2018-Jun-11 17:23N 47°01' W 091°40'0 0.0
2018-Jun-11 16:53N 47°01' W 091°40'0 0.0
2018-Jun-11 16:26N 47°01' W 091°40'0 0.0
2018-Jun-11 16:00N 47°01' W 091°40'0 0.4
2018-Jun-11 15:29N 47°01' W 091°40'1 1.3
2018-Jun-11 15:00N 47°00' W 091°41'1 2.0
2018-Jun-11 14:30N 46°59' W 091°41'1 1.6
2018-Jun-11 13:53N 46°59' W 091°40'1 3.6
2018-Jun-11 13:29N 46°60' W 091°38'2 4.8
2018-Jun-11 13:00N 46°59' W 091°41'3 5.3
2018-Jun-11 12:30N 47°00' W 091°38'30711.1
2018-Jun-10 08:56N 46°23' W 084°13'20 8.2
2018-Jun-10 06:28N 46°04' W 084°01'612.8
2018-Jun-10 06:00N 46°02' W 083°53'612.6
2018-Jun-10 05:31N 45°56' W 083°55'  

Dump ship's entire track history